Time;durP1;ratioP1;P1;durP2;ratioP2;P2;SDS_P1;SDS_P2;PMS_P1;PMS_P2;Temp;Humidity;BMP_temperature;BMP_pressure;BME280_temperature;BME280_humidity;BME280_pressure;Samples;Min_cycle;Max_cycle;Signal;HPM_P1;HPM_P2
2022/11/20 00:02:12;;;;;;;146.83;71.30;;;;;;;-5.12;97.22;98789.59;4257712;81;21059;-79
2022/11/20 00:08:14;;;;;;;197.00;86.77;;;;;;;-5.05;98.11;98774.04;4284549;81;21133;-80
2022/11/20 00:14:15;;;;;;;188.10;83.50;;;;;;;-5.00;97.90;98775.34;4269816;82;21023;-80
2022/11/20 00:20:17;;;;;;;190.43;85.10;;;;;;;-5.02;97.68;98774.28;4249427;81;21038;-79
2022/11/20 00:26:20;;;;;;;196.87;85.13;;;;;;;-5.00;97.83;98778.01;4240402;82;21019;-80
2022/11/20 00:32:22;;;;;;;183.70;80.23;;;;;;;-5.03;97.72;98765.23;4256614;82;21019;-79
2022/11/20 00:38:23;;;;;;;178.70;78.77;;;;;;;-5.13;97.31;98770.10;4265150;82;21100;-78
2022/11/20 00:44:24;;;;;;;172.80;75.90;;;;;;;-5.16;97.41;98773.33;4244535;82;21494;-79
2022/11/20 00:50:25;;;;;;;186.93;82.00;;;;;;;-5.29;96.92;98768.61;4268262;82;21949;-79
2022/11/20 00:56:27;;;;;;;165.23;74.23;;;;;;;-5.37;97.19;98768.42;4297557;81;21052;-80
2022/11/20 01:02:28;;;;;;;156.77;71.83;;;;;;;-5.47;96.73;98755.14;4274017;81;21050;-80
2022/11/20 01:08:34;;;;;;;167.57;74.30;;;;;;;-5.67;96.75;98745.38;4279938;81;21080;-80
2022/11/20 01:14:36;;;;;;;182.17;80.73;;;;;;;-5.82;96.63;98750.84;4280221;81;22023;-78
2022/11/20 01:20:37;;;;;;;166.33;81.13;;;;;;;-5.76;98.24;98757.70;4207263;83;21349;-79
2022/11/20 01:26:41;;;;;;;174.87;79.50;;;;;;;-5.67;97.80;98736.05;4134245;83;21055;-80
2022/11/20 01:32:42;;;;;;;180.20;84.27;;;;;;;-5.55;98.57;98741.86;4163252;83;21067;-78
2022/11/20 01:38:43;;;;;;;187.33;83.40;;;;;;;-5.54;97.67;98736.77;4155581;83;21051;-79
2022/11/20 01:44:58;;;;;;;184.77;81.93;;;;;;;-5.59;97.63;98727.47;4273831;81;21064;-79
2022/11/20 01:51:02;;;;;;;176.50;77.83;;;;;;;-5.63;97.73;98714.97;4266821;82;21066;-79
2022/11/20 01:57:05;;;;;;;158.83;74.67;;;;;;;-5.66;97.59;98708.33;4296431;81;21062;-79
2022/11/20 02:03:17;;;;;;;164.87;72.37;;;;;;;-5.73;97.54;98725.16;4280605;81;21541;-79
2022/11/20 02:09:18;;;;;;;146.63;60.73;;;;;;;-5.77;97.39;98720.13;4300718;81;21057;-79
2022/11/20 02:15:19;;;;;;;162.17;67.90;;;;;;;-5.96;96.95;98731.72;4274061;81;21614;-79
2022/11/20 02:21:54;;;;;;;132.83;58.23;;;;;;;-6.04;97.17;98743.75;4272195;81;21070;-80
2022/11/20 02:27:56;;;;;;;144.70;62.70;;;;;;;-6.06;97.31;98743.78;4285375;81;21071;-79
2022/11/20 02:33:57;;;;;;;144.33;61.43;;;;;;;-6.08;98.31;98741.91;4281632;81;21015;-78
2022/11/20 02:39:59;;;;;;;145.53;61.27;;;;;;;-6.05;97.77;98743.50;4267661;81;21061;-79
2022/11/20 02:46:00;;;;;;;145.80;62.07;;;;;;;-6.00;97.86;98749.34;4279400;81;21119;-79
2022/11/20 02:52:02;;;;;;;145.37;61.37;;;;;;;-6.07;97.59;98746.16;4270144;81;21038;-79
2022/11/20 02:58:03;;;;;;;145.60;62.53;;;;;;;-6.18;97.25;98740.09;4258017;81;21055;-79
2022/11/20 03:04:05;;;;;;;142.77;60.13;;;;;;;-6.23;97.23;98732.11;4267242;81;21036;-78
2022/11/20 03:10:07;;;;;;;127.07;55.67;;;;;;;-6.30;97.37;98737.47;4288442;81;21055;-79
2022/11/20 03:16:16;;;;;;;138.97;57.20;;;;;;;-6.33;97.48;98738.02;4289818;81;21069;-79
2022/11/20 03:22:17;;;;;;;135.97;58.33;;;;;;;-6.39;97.24;98729.79;4296368;81;21035;-78
2022/11/20 03:28:18;;;;;;;143.07;63.27;;;;;;;-6.43;97.31;98724.20;4278240;81;21024;-78
2022/11/20 03:34:19;;;;;;;136.23;57.93;;;;;;;-6.48;97.24;98730.87;4284804;81;21611;-78
2022/11/20 03:40:20;;;;;;;134.80;56.63;;;;;;;-6.53;97.36;98717.59;4263882;81;21400;-78
2022/11/20 03:46:22;;;;;;;133.07;58.97;;;;;;;-6.57;97.34;98707.20;4262601;81;21069;-78
2022/11/20 03:52:23;;;;;;;132.43;55.83;;;;;;;-6.59;97.26;98713.33;4289464;81;21039;-79
2022/11/20 03:58:25;;;;;;;145.40;56.03;;;;;;;-6.62;97.26;98710.69;4272966;81;21097;-78
2022/11/20 04:04:26;;;;;;;134.20;56.50;;;;;;;-6.74;96.87;98706.20;4184777;83;21064;-78
2022/11/20 04:10:27;;;;;;;132.07;56.73;;;;;;;-6.76;97.43;98710.18;4177171;83;21119;-78
2022/11/20 04:16:35;;;;;;;137.00;56.57;;;;;;;-6.73;97.55;98718.95;4184064;83;21067;-79
2022/11/20 04:22:36;;;;;;;131.70;56.37;;;;;;;-6.61;98.04;98707.50;4171358;83;21027;-78
2022/11/20 04:28:39;;;;;;;133.97;56.83;;;;;;;-6.69;97.40;98709.38;4126255;84;21082;-78
2022/11/20 04:34:40;;;;;;;130.33;54.30;;;;;;;-6.72;97.53;98710.70;4137230;84;21066;-79
2022/11/20 04:40:41;;;;;;;131.40;55.07;;;;;;;-6.73;97.53;98702.45;4136810;84;21034;-78
2022/11/20 04:46:43;;;;;;;127.73;56.63;;;;;;;-6.78;97.57;98703.02;4150628;84;21092;-78
2022/11/20 04:52:44;;;;;;;130.53;54.70;;;;;;;-6.64;98.31;98696.06;4137592;83;21038;-78
2022/11/20 04:58:45;;;;;;;127.00;51.90;;;;;;;-6.62;97.89;98695.23;4256558;81;21063;-78
2022/11/20 05:04:47;;;;;;;116.77;51.17;;;;;;;-6.67;97.51;98687.28;4240092;82;23858;-78
2022/11/20 05:10:48;;;;;;;130.17;55.10;;;;;;;-6.84;97.15;98694.76;4219091;82;21036;-78
2022/11/20 05:16:50;;;;;;;126.33;52.13;;;;;;;-6.88;97.46;98687.88;4220981;82;20972;-78
2022/11/20 05:22:51;;;;;;;133.43;56.67;;;;;;;-6.93;97.41;98683.08;4245628;82;21106;-78
2022/11/20 05:28:52;;;;;;;135.03;56.80;;;;;;;-6.90;97.68;98682.02;4233716;82;22142;-79
2022/11/20 05:34:54;;;;;;;137.40;55.00;;;;;;;-6.88;97.83;98672.42;4187267;83;21082;-78
2022/11/20 05:40:55;;;;;;;134.03;59.27;;;;;;;-6.94;97.48;98670.30;4245729;82;21010;-78
2022/11/20 05:46:56;;;;;;;124.40;55.43;;;;;;;-7.04;97.43;98669.53;4224065;82;21038;-78
2022/11/20 05:53:01;;;;;;;137.27;53.33;;;;;;;-7.03;97.68;98663.94;4172464;83;21143;-78
2022/11/20 05:59:03;;;;;;;133.55;56.00;;;;;;;-7.02;97.68;98662.08;4162286;83;21643;-78
2022/11/20 06:05:05;;;;;;;144.47;59.63;;;;;;;-7.04;97.45;98666.34;4173280;83;21070;-78
2022/11/20 06:11:10;;;;;;;133.73;56.17;;;;;;;-7.06;97.57;98671.68;4170480;83;21063;-80
2022/11/20 06:17:11;;;;;;;144.93;59.40;;;;;;;-7.12;97.31;98674.06;4178164;83;21070;-79
2022/11/20 06:23:13;;;;;;;159.13;65.17;;;;;;;-7.17;97.57;98672.77;4158235;83;21810;-78
2022/11/20 06:29:14;;;;;;;164.80;68.57;;;;;;;-7.14;97.80;98671.67;4153262;83;21348;-79
2022/11/20 06:35:18;;;;;;;162.23;67.07;;;;;;;-7.16;97.77;98661.85;4162974;83;22095;-77
2022/11/20 06:41:22;;;;;;;137.97;62.57;;;;;;;-7.19;97.76;98653.08;4182809;83;21090;-79
2022/11/20 06:47:23;;;;;;;157.60;67.77;;;;;;;-7.15;98.23;98650.66;4142726;84;21640;-79
2022/11/20 06:53:25;;;;;;;158.47;69.07;;;;;;;-7.11;98.35;98657.05;4218509;82;21028;-78
2022/11/20 06:59:26;;;;;;;191.67;73.90;;;;;;;-7.09;98.41;98651.72;4152481;83;22004;-78
2022/11/20 07:05:27;;;;;;;179.40;70.60;;;;;;;-6.99;98.72;98645.05;4140081;84;20980;-79
2022/11/20 07:11:28;;;;;;;215.47;77.80;;;;;;;-6.93;98.93;98649.29;4149261;83;21003;-79
2022/11/20 07:17:30;;;;;;;168.40;68.20;;;;;;;-6.81;99.58;98654.30;4233260;82;21535;-79
2022/11/20 07:23:31;;;;;;;175.93;69.57;;;;;;;-6.63;100.00;98657.19;4252460;82;21015;-78
2022/11/20 07:29:32;;;;;;;175.17;73.13;;;;;;;-6.46;100.00;98655.50;4156268;83;21050;-79
2022/11/20 07:35:33;;;;;;;175.07;73.23;;;;;;;-6.37;100.00;98653.08;4185228;83;21141;-78
2022/11/20 07:41:34;;;;;;;161.23;65.07;;;;;;;-6.26;100.00;98658.06;4173431;83;21038;-78
2022/11/20 07:47:36;;;;;;;155.40;67.10;;;;;;;-6.25;99.93;98674.33;4187467;83;21669;-78
2022/11/20 07:53:37;;;;;;;158.80;66.73;;;;;;;-6.15;100.00;98670.82;4237388;82;21543;-78
2022/11/20 07:59:39;;;;;;;145.40;64.47;;;;;;;-6.07;99.93;98673.69;4230866;82;21522;-78
2022/11/20 08:05:40;;;;;;;157.10;68.07;;;;;;;-5.99;100.00;98672.30;4237435;82;22036;-79
2022/11/20 08:18:06;;;;;;;174.97;68.93;;;;;;;-5.90;100.00;98666.67;4131798;84;21011;-80
2022/11/20 08:24:09;;;;;;;184.70;73.90;;;;;;;-5.85;100.00;98671.42;4161962;84;21130;-80
2022/11/20 08:30:11;;;;;;;186.17;73.83;;;;;;;-5.74;100.00;98658.78;4198490;83;21498;-80
2022/11/20 08:36:13;;;;;;;169.07;71.07;;;;;;;-5.60;100.00;98665.88;4197545;83;21038;-80
2022/11/20 08:42:14;;;;;;;177.07;72.93;;;;;;;-5.36;100.00;98653.95;4194003;83;20980;-80
2022/11/20 08:48:15;;;;;;;164.90;67.33;;;;;;;-5.14;100.00;98657.77;4203623;83;22244;-81
2022/11/20 08:54:19;;;;;;;176.93;69.27;;;;;;;-5.01;100.00;98657.61;4200830;83;21007;-80
2022/11/20 09:00:20;;;;;;;173.30;67.37;;;;;;;-4.82;100.00;98659.82;4197515;83;21051;-82
2022/11/20 09:06:21;;;;;;;182.93;73.07;;;;;;;-4.61;100.00;98651.05;4183043;83;21008;-81
2022/11/20 09:12:22;;;;;;;187.07;71.57;;;;;;;-4.46;100.00;98655.67;4174384;83;21013;-79
2022/11/20 09:18:24;;;;;;;183.67;71.70;;;;;;;-4.29;100.00;98657.88;4161772;83;21049;-81
2022/11/20 09:24:27;;;;;;;190.10;72.47;;;;;;;-4.17;100.00;98647.56;4162396;83;34517;-81
2022/11/20 09:30:28;;;;;;;188.03;76.33;;;;;;;-4.09;100.00;98638.90;4103117;84;21516;-82
2022/11/20 09:36:30;;;;;;;190.37;75.07;;;;;;;-4.00;100.00;98637.97;4143498;84;21014;-81
2022/11/20 09:42:57;;;;;;;184.17;73.97;;;;;;;-3.98;100.00;98633.13;4202974;83;21852;-82
2022/11/20 09:49:30;;;;;;;167.77;68.57;;;;;;;-3.89;100.00;98639.41;4146632;83;21557;-81
2022/11/20 09:55:32;;;;;;;156.77;65.97;;;;;;;-3.75;100.00;98640.80;4084803;85;21630;-81
2022/11/20 10:01:38;;;;;;;175.93;75.37;;;;;;;-3.71;100.00;98645.28;4188469;83;21057;-80
2022/11/20 10:08:05;;;;;;;165.43;70.07;;;;;;;-3.57;100.00;98641.34;4134809;83;21084;-81
2022/11/20 10:14:30;;;;;;;156.83;68.97;;;;;;;-3.46;100.00;98651.57;4099380;84;21107;-80
2022/11/20 10:21:16;;;;;;;161.90;68.70;;;;;;;-3.29;100.00;98649.70;4140850;84;21084;-81
2022/11/20 10:27:54;;;;;;;152.60;70.20;;;;;;;-3.19;100.00;98648.18;4171116;83;21089;-80
2022/11/20 10:33:59;;;;;;;154.60;68.80;;;;;;;-3.04;100.00;98635.08;4108236;84;22119;-80
2022/11/20 10:40:17;;;;;;;149.70;66.50;;;;;;;-2.98;100.00;98629.87;4162896;83;21428;-81
2022/11/20 10:46:22;;;;;;;146.77;67.50;;;;;;;-2.97;100.00;98620.20;4141944;84;21054;-80
2022/11/20 10:52:44;;;;;;;141.73;64.60;;;;;;;-2.91;100.00;98610.21;4190556;83;21023;-82
2022/11/20 10:59:06;;;;;;;155.37;67.93;;;;;;;-2.92;100.00;98614.77;4184696;83;22199;-81
2022/11/20 11:05:18;;;;;;;148.13;66.07;;;;;;;-2.87;100.00;98607.98;4154957;83;21089;-81
2022/11/20 11:11:32;;;;;;;151.67;69.40;;;;;;;-2.72;100.00;98596.16;4082413;84;21016;-81
2022/11/20 11:17:34;;;;;;;160.57;72.30;;;;;;;-2.55;100.00;98586.98;4159320;84;21060;-81
2022/11/20 11:23:42;;;;;;;155.57;72.37;;;;;;;-2.43;100.00;98565.82;4176412;83;21040;-82
2022/11/20 11:29:47;;;;;;;145.23;65.80;;;;;;;-2.28;100.00;98565.48;4138994;84;21596;-80
2022/11/20 11:36:02;;;;;;;165.87;75.87;;;;;;;-2.18;100.00;98574.66;4148055;83;21982;-82
2022/11/20 11:42:03;;;;;;;155.60;72.77;;;;;;;-2.15;100.00;98563.32;4126765;84;21043;-82
2022/11/20 11:48:08;;;;;;;161.37;76.80;;;;;;;-1.98;100.00;98559.44;4121616;84;21023;-82
2022/11/20 11:54:15;;;;;;;154.20;74.67;;;;;;;-1.88;100.00;98543.11;4136571;84;21014;-84
2022/11/20 12:00:20;;;;;;;171.60;81.63;;;;;;;-1.92;100.00;98532.73;4107289;84;20986;-83
2022/11/20 12:06:23;;;;;;;134.97;64.00;;;;;;;-1.75;100.00;98525.59;4109124;84;21011;-84
2022/11/20 12:12:39;;;;;;;169.22;79.55;;;;;;;-1.58;100.00;98516.84;4191638;83;22250;-84
2022/11/20 12:18:42;;;;;;;181.07;82.67;;;;;;;-1.52;100.00;98516.18;4218280;82;21030;-85
2022/11/20 12:25:16;;;;;;;160.65;79.22;;;;;;;-1.39;100.00;98527.39;4150392;83;21148;-84
2022/11/20 12:31:44;;;;;;;163.90;79.75;;;;;;;-1.43;100.00;98527.21;4145685;83;21934;-85
2022/11/20 12:38:22;;;;;;;171.80;83.75;;;;;;;-1.33;100.00;98530.19;4163231;83;21083;-85
2022/11/20 12:45:10;;;;;;;175.75;85.35;;;;;;;-1.25;100.00;98528.09;4155493;84;21552;-85
2022/11/20 12:51:38;;;;;;;175.57;82.62;;;;;;;-1.19;100.00;98522.83;4138759;83;21040;-86
2022/11/20 12:57:47;;;;;;;172.70;85.33;;;;;;;-1.23;100.00;98513.25;4174998;83;22083;-86
2022/11/20 13:03:53;;;;;;;166.13;81.47;;;;;;;-1.16;100.00;98500.14;4113541;83;21068;-86
2022/11/20 13:09:56;;;;;;;178.23;83.05;;;;;;;-1.07;100.00;98494.27;4189707;83;21043;-86
2022/11/20 13:16:27;;;;;;;182.27;85.72;;;;;;;-1.07;100.00;98484.08;4189921;83;21579;-86
2022/11/20 13:22:54;;;;;;;176.02;83.00;;;;;;;-1.02;100.00;98479.91;4165094;83;21114;-86
2022/11/20 13:29:06;;;;;;;170.00;80.92;;;;;;;-1.00;100.00;98469.08;4212351;82;21107;-86
2022/11/20 13:35:14;;;;;;;149.70;70.90;;;;;;;-0.97;100.00;98447.53;4175592;83;21804;-86
2022/11/20 13:41:39;;;;;;;159.07;72.87;;;;;;;-1.06;100.00;98446.69;4180337;83;21109;-86
2022/11/20 13:47:48;;;;;;;153.85;68.85;;;;;;;-1.14;100.00;98444.80;4170138;83;21095;-86
2022/11/20 13:54:01;;;;;;;156.20;71.77;;;;;;;-1.12;100.00;98438.55;4190204;83;21155;-86
2022/11/20 14:00:22;;;;;;;173.97;74.07;;;;;;;-1.10;100.00;98451.92;4114980;84;21532;-86
2022/11/20 14:06:37;;;;;;;170.12;75.72;;;;;;;-1.07;100.00;98463.38;4108628;84;21608;-86
2022/11/20 14:12:38;;;;;;;192.87;82.60;;;;;;;-1.04;100.00;98452.02;4085037;84;21059;-86
2022/11/20 14:18:41;;;;;;;165.32;75.85;;;;;;;-1.17;100.00;98419.34;4118621;84;21144;-86
2022/11/20 14:24:42;;;;;;;178.93;83.50;;;;;;;-1.05;100.00;98439.66;4114562;84;21048;-85
2022/11/20 14:30:47;;;;;;;168.50;79.80;;;;;;;-1.15;100.00;98427.89;4119273;84;21487;-85
2022/11/20 14:36:57;;;;;;;181.55;79.72;;;;;;;-1.21;100.00;98421.08;4139354;84;21590;-85
2022/11/20 14:42:59;;;;;;;182.83;81.87;;;;;;;-1.34;100.00;98417.95;4153027;83;20999;-84
2022/11/20 14:49:03;;;;;;;180.37;77.60;;;;;;;-1.49;100.00;98421.61;4071260;84;21097;-84
2022/11/20 14:55:07;;;;;;;177.97;78.65;;;;;;;-1.67;100.00;98414.84;4099949;84;21597;-82
2022/11/20 15:01:12;;;;;;;216.27;91.70;;;;;;;-1.79;100.00;98413.28;4205582;83;21058;-82
2022/11/20 15:07:28;;;;;;;183.45;79.67;;;;;;;-1.90;100.00;98417.34;4181431;83;21093;-82
2022/11/20 15:13:36;;;;;;;195.87;87.00;;;;;;;-1.93;100.00;98409.91;4187151;83;21042;-82
2022/11/20 15:19:38;;;;;;;221.20;96.60;;;;;;;-1.92;100.00;98412.02;4134400;84;21090;-82
2022/11/20 15:25:41;;;;;;;227.50;101.00;;;;;;;-1.94;100.00;98408.84;4129313;84;21228;-82
2022/11/20 15:31:44;;;;;;;232.57;102.27;;;;;;;-2.08;100.00;98406.25;4157881;83;21572;-82
2022/11/20 15:37:45;;;;;;;217.13;100.97;;;;;;;-2.13;100.00;98405.60;4114527;84;21135;-82
2022/11/20 15:43:47;;;;;;;189.87;85.10;;;;;;;-2.13;100.00;98394.30;4146763;84;21052;-82
2022/11/20 15:49:48;;;;;;;173.03;80.97;;;;;;;-2.22;100.00;98397.49;4173588;83;21052;-82
2022/11/20 15:55:49;;;;;;;193.07;83.27;;;;;;;-2.24;100.00;98380.14;4161370;83;21020;-82
2022/11/20 16:01:51;;;;;;;194.30;84.87;;;;;;;-2.33;100.00;98374.70;4143365;84;21520;-82
2022/11/20 16:07:52;;;;;;;212.13;92.83;;;;;;;-2.35;100.00;98376.13;4150949;83;21062;-82
2022/11/20 16:20:13;;;;;;;196.93;87.73;;;;;;;-2.13;100.00;98388.17;4172560;83;21020;-82
2022/11/20 16:26:18;;;;;;;196.57;87.00;;;;;;;-2.03;100.00;98389.23;4146753;83;21034;-81
2022/11/20 16:32:20;;;;;;;205.50;92.00;;;;;;;-2.00;100.00;98388.62;4154272;83;21068;-82
2022/11/20 16:38:29;;;;;;;220.53;94.33;;;;;;;-1.92;100.00;98383.84;4153665;84;21023;-82
2022/11/20 16:44:31;;;;;;;205.93;92.97;;;;;;;-1.87;100.00;98385.86;4145702;84;21122;-82
2022/11/20 16:50:40;;;;;;;199.40;92.43;;;;;;;-1.83;100.00;98391.38;4144844;84;21048;-82
2022/11/20 16:57:01;;;;;;;;;;;;;;;;;;;;;
2022/11/20 17:03:09;;;;;;;207.37;92.93;;;;;;;-1.80;100.00;98402.30;4162494;84;21006;-82
2022/11/20 17:09:12;;;;;;;195.93;91.17;;;;;;;-1.78;100.00;98384.00;4135456;83;21089;-82
2022/11/20 17:15:14;;;;;;;213.17;97.03;;;;;;;-1.79;100.00;98377.06;4133159;84;21117;-82
2022/11/20 17:21:17;;;;;;;232.77;103.30;;;;;;;-1.78;100.00;98373.81;4181556;82;20989;-82
2022/11/20 17:27:51;;;;;;;231.80;102.03;;;;;;;-1.75;100.00;98372.65;4159675;84;21023;-82
2022/11/20 17:33:52;;;;;;;223.87;104.80;;;;;;;-1.72;100.00;98364.52;4203410;82;21034;-83
2022/11/20 17:39:56;;;;;;;237.57;104.77;;;;;;;-1.72;100.00;98345.73;4148044;84;21027;-81
2022/11/20 17:45:58;;;;;;;221.10;101.33;;;;;;;-1.74;100.00;98343.36;4154406;83;21076;-82
2022/11/20 17:51:59;;;;;;;211.00;98.20;;;;;;;-1.77;100.00;98343.22;4183890;83;21006;-82
2022/11/20 17:58:05;;;;;;;228.17;107.27;;;;;;;-1.79;100.00;98362.85;4160206;84;21061;-82
2022/11/20 18:04:04;;;;;;;207.50;98.20;;;;;;;-1.80;100.00;98358.03;4137217;83;21002;-81
2022/11/20 18:10:07;;;;;;;214.83;100.03;;;;;;;-1.82;100.00;98351.40;4161487;83;21416;-82
2022/11/20 18:16:11;;;;;;;212.42;100.72;;;;;;;-1.88;100.00;98349.95;4116337;84;21028;-83
2022/11/20 18:22:17;;;;;;;229.57;107.87;;;;;;;-1.92;100.00;98355.69;4172889;83;21032;-82
2022/11/20 18:28:18;;;;;;;231.10;107.30;;;;;;;-1.94;100.00;98354.66;4105729;84;21089;-82
2022/11/20 18:34:20;;;;;;;310.93;133.13;;;;;;;-1.88;100.00;98361.46;4161692;83;21028;-82
2022/11/20 18:40:21;;;;;;;247.17;108.43;;;;;;;-1.91;100.00;98352.69;4143913;84;21029;-82
2022/11/20 18:46:22;;;;;;;275.47;121.47;;;;;;;-1.97;100.00;98328.98;4145444;84;21576;-82
2022/11/20 18:52:32;;;;;;;259.70;115.70;;;;;;;-2.06;100.00;98334.88;4140076;84;21215;-82
2022/11/20 18:58:34;;;;;;;264.87;118.27;;;;;;;-2.12;100.00;98328.06;4144605;83;21159;-82
2022/11/20 19:04:35;;;;;;;273.10;126.47;;;;;;;-2.21;100.00;98326.67;4145884;84;21963;-82
2022/11/20 19:10:37;;;;;;;252.77;110.73;;;;;;;-2.34;100.00;98314.16;4160290;84;21019;-82
2022/11/20 19:16:38;;;;;;;264.20;124.20;;;;;;;-2.42;100.00;98310.88;4155469;84;21021;-82
2022/11/20 19:22:39;;;;;;;254.43;113.17;;;;;;;-2.57;100.00;98307.80;4170620;83;21069;-82
2022/11/20 19:28:41;;;;;;;212.13;92.77;;;;;;;-2.59;100.00;98295.25;4187810;82;21029;-82
2022/11/20 19:34:42;;;;;;;233.73;104.77;;;;;;;-2.70;100.00;98304.63;4165818;83;21077;-82
2022/11/20 19:40:44;;;;;;;240.07;115.60;;;;;;;-2.87;100.00;98313.35;4192128;83;21649;-82
2022/11/20 19:46:45;;;;;;;227.90;107.40;;;;;;;-2.98;100.00;98301.30;4183608;82;21956;-82
2022/11/20 19:52:49;;;;;;;241.33;111.17;;;;;;;-3.01;100.00;98301.91;4159990;83;21645;-82
2022/11/20 19:58:52;;;;;;;269.97;121.73;;;;;;;-2.97;100.00;98297.51;4177703;82;21048;-82
2022/11/20 20:04:53;;;;;;;265.37;124.27;;;;;;;-3.09;100.00;98293.79;4162009;83;21008;-82
2022/11/20 20:10:55;;;;;;;293.17;135.33;;;;;;;-3.19;100.00;98319.47;4022910;83;9999852;-82
2022/11/20 20:16:56;;;;;;;282.47;126.33;;;;;;;-3.23;100.00;98312.02;4142932;84;21526;-82
2022/11/20 20:22:57;;;;;;;288.47;132.23;;;;;;;-3.35;100.00;98306.41;4147631;84;21590;-82
2022/11/20 20:29:01;;;;;;;310.50;146.00;;;;;;;-3.41;100.00;98314.30;4139163;84;21010;-82
2022/11/20 20:35:04;;;;;;;331.07;149.87;;;;;;;-3.41;100.00;98325.01;4068417;85;21031;-82
2022/11/20 20:41:05;;;;;;;303.20;132.93;;;;;;;-3.36;100.00;98300.02;4122751;84;21060;-82
2022/11/20 20:47:07;;;;;;;303.50;131.57;;;;;;;-3.44;100.00;98316.25;4161868;84;21024;-82
2022/11/20 20:53:09;;;;;;;339.43;156.00;;;;;;;-3.35;100.00;98329.16;4147958;83;21027;-82
2022/11/20 20:59:10;;;;;;;322.50;149.20;;;;;;;-3.27;100.00;98319.08;4148206;84;21055;-82
2022/11/20 21:05:12;;;;;;;381.73;166.33;;;;;;;-3.24;100.00;98315.00;4136665;84;21542;-82
2022/11/20 21:11:16;;;;;;;379.10;173.03;;;;;;;-3.15;100.00;98299.02;4060344;83;9999554;-82
2022/11/20 21:17:17;;;;;;;367.83;165.07;;;;;;;-3.13;100.00;98297.61;4086932;84;21040;-82
2022/11/20 21:23:18;;;;;;;384.57;175.93;;;;;;;-3.05;100.00;98309.51;4138737;84;21419;-82
2022/11/20 21:29:22;;;;;;;323.63;145.53;;;;;;;-3.05;100.00;98309.51;4137480;84;21027;-82
2022/11/20 21:35:23;;;;;;;254.67;116.20;;;;;;;-2.99;100.00;98321.11;4142357;84;21035;-82
2022/11/20 21:41:26;;;;;;;293.87;129.87;;;;;;;-2.93;100.00;98319.13;4110027;84;21055;-82
2022/11/20 21:47:28;;;;;;;283.67;126.57;;;;;;;-2.86;100.00;98314.13;4170241;83;21045;-82
2022/11/20 21:53:30;;;;;;;267.00;121.37;;;;;;;-2.78;100.00;98304.02;4145791;84;21086;-81
2022/11/20 21:59:31;;;;;;;252.10;114.73;;;;;;;-2.74;100.00;98295.06;4158796;84;21067;-81
2022/11/20 22:05:32;;;;;;;253.10;118.47;;;;;;;-2.69;100.00;98308.91;4135300;84;21616;-82
2022/11/20 22:11:33;;;;;;;239.03;110.20;;;;;;;-2.61;100.00;98312.17;4131461;84;21050;-81
2022/11/20 22:23:55;;;;;;;247.10;114.90;;;;;;;-2.49;100.00;98315.87;4141549;84;21071;-83
2022/11/20 22:29:56;;;;;;;259.00;119.47;;;;;;;-2.48;100.00;98321.50;4163180;83;21121;-82
2022/11/20 22:36:10;;;;;;;223.23;104.30;;;;;;;-2.44;100.00;98316.29;4160552;83;22091;-82
2022/11/20 22:42:11;;;;;;;263.57;121.93;;;;;;;-2.40;100.00;98328.80;4114322;83;21025;-81
2022/11/20 22:48:12;;;;;;;273.43;127.00;;;;;;;-2.42;100.00;98344.92;4142278;84;21076;-82
2022/11/20 22:54:14;;;;;;;253.87;121.10;;;;;;;-2.33;100.00;98335.04;4180726;83;21011;-82
2022/11/20 23:00:18;;;;;;;266.03;120.60;;;;;;;-2.28;100.00;98336.25;4153660;84;21066;-82
2022/11/20 23:06:21;;;;;;;265.07;124.70;;;;;;;-2.24;100.00;98331.87;4154574;83;21020;-82
2022/11/20 23:12:22;;;;;;;266.07;123.43;;;;;;;-2.19;100.00;98331.72;4169880;83;21115;-82
2022/11/20 23:18:23;;;;;;;255.57;119.70;;;;;;;-2.12;100.00;98334.23;4188706;83;21042;-82
2022/11/20 23:24:24;;;;;;;208.67;97.30;;;;;;;-2.05;100.00;98333.22;4095451;84;21026;-82
2022/11/20 23:30:26;;;;;;;216.00;98.30;;;;;;;-2.06;100.00;98347.74;4141353;84;21883;-81
2022/11/20 23:36:27;;;;;;;196.83;93.50;;;;;;;-2.02;100.00;98319.77;4172702;83;21071;-83
2022/11/20 23:42:28;;;;;;;185.27;83.50;;;;;;;-1.98;100.00;98314.81;4149459;84;21144;-82
2022/11/20 23:48:35;;;;;;;205.90;93.33;;;;;;;-2.05;100.00;98316.36;4162194;84;21071;-82
2022/11/20 23:54:36;;;;;;;218.23;99.53;;;;;;;-2.07;100.00;98313.95;4132378;84;21127;-82
